Time;durP1;ratioP1;P1;durP2;ratioP2;P2;SDS_P1;SDS_P2;PMS_P1;PMS_P2;Temp;Humidity;BMP_temperature;BMP_pressure;BME280_temperature;BME280_humidity;BME280_pressure;Samples;Min_cycle;Max_cycle;Signal;HPM_P1;HPM_P2
2022/07/16 00:02:50;;;;;;;0.20;0.20;;;16.90;99.90;;;;;;5091264;28;20265;-81
2022/07/16 00:05:16;;;;;;;0.20;0.20;;;16.90;99.90;;;;;;5087489;28;20637;-81
2022/07/16 00:07:42;;;;;;;0.33;0.33;;;16.80;99.90;;;;;;5085971;28;20211;-81
2022/07/16 00:10:08;;;;;;;0.20;0.20;;;16.80;99.90;;;;;;5086853;28;20204;-81
2022/07/16 00:12:34;;;;;;;0.20;0.20;;;16.80;99.90;;;;;;5084258;28;20203;-81
2022/07/16 00:14:59;;;;;;;0.50;0.50;;;16.80;99.90;;;;;;5089075;28;20180;-81
2022/07/16 00:17:25;;;;;;;0.30;0.30;;;16.80;99.90;;;;;;5085234;28;20207;-81
2022/07/16 00:19:51;;;;;;;0.23;0.20;;;16.80;99.90;;;;;;5084146;28;20192;-82
2022/07/16 00:22:16;;;;;;;0.50;0.47;;;16.70;99.90;;;;;;5088398;28;20184;-81
2022/07/16 00:24:42;;;;;;;0.10;0.10;;;16.70;99.90;;;;;;5086101;28;20226;-81
2022/07/16 00:27:07;;;;;;;0.17;0.17;;;16.70;99.90;;;;;;5086972;28;20230;-81
2022/07/16 00:29:33;;;;;;;0.20;0.20;;;16.70;99.90;;;;;;5088151;28;20260;-81
2022/07/16 00:31:59;;;;;;;0.20;0.20;;;16.70;99.90;;;;;;5083779;28;20183;-80
2022/07/16 00:34:24;;;;;;;0.33;0.27;;;16.70;99.90;;;;;;5085275;28;20176;-79
2022/07/16 00:36:50;;;;;;;0.40;0.37;;;16.80;99.90;;;;;;5075987;28;20237;-80
2022/07/16 00:39:17;;;;;;;0.40;0.40;;;16.70;99.90;;;;;;5086340;28;20188;-79
2022/07/16 00:41:45;;;;;;;0.20;0.20;;;16.80;99.90;;;;;;5085177;28;20653;-79
2022/07/16 00:44:14;;;;;;;0.30;0.30;;;16.70;99.90;;;;;;5079614;28;20181;-81
2022/07/16 00:46:40;;;;;;;0.37;0.37;;;16.70;99.90;;;;;;5085550;28;20271;-80
2022/07/16 00:49:06;;;;;;;0.23;0.23;;;16.70;99.90;;;;;;5083305;28;20196;-80
2022/07/16 00:51:33;;;;;;;0.40;0.40;;;16.70;99.90;;;;;;5078191;28;20525;-79
2022/07/16 00:53:59;;;;;;;0.20;0.20;;;16.60;99.90;;;;;;5080309;28;20178;-79
2022/07/16 00:56:25;;;;;;;0.37;0.33;;;16.60;99.90;;;;;;5083380;28;20172;-79
2022/07/16 00:58:52;;;;;;;0.57;0.57;;;16.60;99.90;;;;;;5094136;28;20196;-79
2022/07/16 01:01:18;;;;;;;0.20;0.20;;;16.70;99.90;;;;;;5083870;28;20186;-80
2022/07/16 01:03:44;;;;;;;1.70;0.30;;;16.70;99.90;;;;;;5081677;28;20181;-79
2022/07/16 01:06:11;;;;;;;0.20;0.20;;;16.70;99.90;;;;;;5080138;28;20188;-80
2022/07/16 01:08:40;;;;;;;0.53;0.33;;;16.70;99.90;;;;;;5074858;28;20216;-79
2022/07/16 01:11:08;;;;;;;0.13;0.13;;;16.70;99.90;;;;;;5090105;28;20258;-80
2022/07/16 01:13:35;;;;;;;2.47;0.37;;;16.70;99.90;;;;;;5079121;28;20177;-80
2022/07/16 01:16:02;;;;;;;0.47;0.40;;;16.70;99.90;;;;;;5083300;28;20173;-79
2022/07/16 01:18:30;;;;;;;0.70;0.30;;;16.60;99.90;;;;;;5082375;28;20204;-81
2022/07/16 01:20:55;;;;;;;0.30;0.30;;;16.60;99.90;;;;;;5085499;28;20181;-80
2022/07/16 01:23:23;;;;;;;0.20;0.20;;;16.60;99.90;;;;;;5086356;28;20185;-79
2022/07/16 01:25:49;;;;;;;0.17;0.17;;;16.50;99.90;;;;;;5088780;28;20192;-79
2022/07/16 01:28:15;;;;;;;0.30;0.30;;;16.50;99.90;;;;;;5088170;28;20200;-79
2022/07/16 01:30:42;;;;;;;0.40;0.30;;;16.40;99.90;;;;;;5087561;28;20580;-80
2022/07/16 01:33:28;;;;;;;0.20;0.20;;;16.30;99.90;;;;;;5092728;28;20187;-80
2022/07/16 01:35:58;;;;;;;0.23;0.23;;;16.30;99.90;;;;;;5086250;28;20673;-80
2022/07/16 01:38:24;;;;;;;0.30;0.30;;;16.30;99.90;;;;;;5082806;28;20188;-80
2022/07/16 01:40:49;;;;;;;0.30;0.30;;;16.30;99.90;;;;;;5083306;28;20185;-80
2022/07/16 01:43:21;;;;;;;4.27;0.30;;;16.20;99.90;;;;;;5075075;28;20188;-80
2022/07/16 01:45:47;;;;;;;0.13;0.13;;;16.20;99.90;;;;;;5073920;28;20216;-80
2022/07/16 01:48:13;;;;;;;0.10;0.10;;;16.20;99.90;;;;;;5070955;28;20209;-82
2022/07/16 01:50:40;;;;;;;0.97;0.50;;;16.10;99.90;;;;;;5083237;28;20279;-81
2022/07/16 01:53:06;;;;;;;0.20;0.20;;;16.10;99.90;;;;;;5082343;28;20236;-81
2022/07/16 01:55:35;;;;;;;0.20;0.20;;;16.10;99.90;;;;;;5087267;28;20176;-81
2022/07/16 01:58:02;;;;;;;0.27;0.27;;;15.90;99.90;;;;;;5087754;28;20206;-81
2022/07/16 02:00:29;;;;;;;0.23;0.20;;;15.80;99.90;;;;;;5085880;28;20684;-81
2022/07/16 02:02:55;;;;;;;0.30;0.30;;;15.70;99.90;;;;;;5082964;28;20180;-81
2022/07/16 02:05:21;;;;;;;0.20;0.20;;;15.50;99.90;;;;;;5086753;28;20225;-82
2022/07/16 02:07:46;;;;;;;0.20;0.20;;;15.40;99.90;;;;;;5084530;28;20204;-80
2022/07/16 02:10:12;;;;;;;0.30;0.27;;;15.40;99.90;;;;;;5080549;28;20200;-81
2022/07/16 02:12:38;;;;;;;0.20;0.20;;;15.20;99.90;;;;;;5088382;28;20180;-80
2022/07/16 02:15:05;;;;;;;0.10;0.10;;;15.20;99.90;;;;;;5081517;28;20714;-79
2022/07/16 02:17:30;;;;;;;0.20;0.20;;;15.10;99.90;;;;;;5088390;28;20196;-80
2022/07/16 02:19:56;;;;;;;0.30;0.30;;;15.20;99.90;;;;;;5085272;28;20181;-79
2022/07/16 02:22:22;;;;;;;0.20;0.20;;;15.20;99.90;;;;;;5075022;28;20181;-80
2022/07/16 02:24:47;;;;;;;0.10;0.10;;;15.30;99.90;;;;;;5077230;28;20186;-79
2022/07/16 02:27:13;;;;;;;0.30;0.30;;;15.30;99.90;;;;;;5077188;28;20258;-80
2022/07/16 02:29:38;;;;;;;0.30;0.30;;;15.40;99.90;;;;;;5087938;28;20222;-80
2022/07/16 02:32:04;;;;;;;0.20;0.20;;;15.50;99.90;;;;;;5087343;28;20249;-80
2022/07/16 02:34:29;;;;;;;0.23;0.23;;;15.40;99.90;;;;;;5085481;28;20245;-80
2022/07/16 02:36:55;;;;;;;0.30;0.30;;;15.30;99.90;;;;;;5073025;28;20289;-79
2022/07/16 02:39:21;;;;;;;0.40;0.40;;;15.50;99.90;;;;;;5086286;28;20275;-80
2022/07/16 02:41:46;;;;;;;0.10;0.10;;;15.40;99.90;;;;;;5087356;28;20181;-81
2022/07/16 02:44:12;;;;;;;0.20;0.20;;;15.30;99.90;;;;;;5088787;28;20191;-80
2022/07/16 02:46:37;;;;;;;0.20;0.20;;;15.20;99.90;;;;;;5086770;28;20560;-80
2022/07/16 02:49:03;;;;;;;0.30;0.30;;;15.20;99.90;;;;;;5087893;28;20830;-80
2022/07/16 02:51:28;;;;;;;0.10;0.10;;;15.30;99.90;;;;;;5080295;28;20177;-79
2022/07/16 02:53:54;;;;;;;0.30;0.30;;;15.40;99.90;;;;;;5091282;28;20181;-79
2022/07/16 02:56:19;;;;;;;0.10;0.10;;;15.40;99.90;;;;;;5083913;28;20233;-80
2022/07/16 02:58:45;;;;;;;0.10;0.10;;;15.50;99.90;;;;;;5091717;28;20287;-80
2022/07/16 03:01:10;;;;;;;0.13;0.13;;;15.30;99.90;;;;;;5077873;28;20227;-80
2022/07/16 03:03:36;;;;;;;0.20;0.20;;;15.40;99.90;;;;;;5081409;28;20181;-80
2022/07/16 03:06:02;;;;;;;0.20;0.20;;;15.20;99.90;;;;;;5089209;28;20177;-80
2022/07/16 03:08:28;;;;;;;0.13;0.13;;;15.30;99.90;;;;;;5081760;28;20231;-80
2022/07/16 03:10:53;;;;;;;0.13;0.13;;;15.30;99.90;;;;;;5091009;28;20866;-79
2022/07/16 03:13:19;;;;;;;0.10;0.10;;;15.30;99.90;;;;;;5081958;28;20187;-81
2022/07/16 03:15:44;;;;;;;0.10;0.10;;;15.20;99.90;;;;;;5091979;28;20187;-79
2022/07/16 03:18:10;;;;;;;0.10;0.10;;;15.10;99.90;;;;;;5083472;28;20342;-80
2022/07/16 03:20:35;;;;;;;0.10;0.10;;;15.10;99.90;;;;;;5082083;28;20176;-80
2022/07/16 03:23:01;;;;;;;0.20;0.20;;;15.10;99.90;;;;;;5089924;28;20653;-81
2022/07/16 03:25:26;;;;;;;0.10;0.10;;;15.10;99.90;;;;;;5068927;28;20185;-80
2022/07/16 03:27:52;;;;;;;0.60;0.30;;;15.10;99.90;;;;;;5088221;28;20204;-80
2022/07/16 03:30:18;;;;;;;0.30;0.30;;;15.20;99.90;;;;;;5083461;28;20210;-80
2022/07/16 03:32:44;;;;;;;0.20;0.20;;;15.20;99.90;;;;;;5083283;28;20182;-80
2022/07/16 03:35:11;;;;;;;0.30;0.30;;;15.20;99.90;;;;;;5077238;28;20177;-80
2022/07/16 03:38:57;;;;;;;0.23;0.23;;;15.20;99.90;;;;;;5062916;28;20246;-80
2022/07/16 03:40:23;;;;;;;0.20;0.20;;;15.20;99.90;;;;;;5085979;28;20192;-80
2022/07/16 03:42:48;;;;;;;0.13;0.13;;;15.30;99.90;;;;;;5083247;28;20195;-80
2022/07/16 03:45:14;;;;;;;0.20;0.20;;;15.30;99.90;;;;;;5086802;28;20176;-80
2022/07/16 03:47:39;;;;;;;0.10;0.10;;;15.30;99.90;;;;;;5082755;28;20219;-81
2022/07/16 03:50:05;;;;;;;0.23;0.23;;;15.30;99.90;;;;;;5089696;28;20643;-80
2022/07/16 03:52:31;;;;;;;0.10;0.10;;;15.40;99.90;;;;;;5073645;28;20260;-80
2022/07/16 03:54:56;;;;;;;0.10;0.10;;;15.80;99.90;;;;;;5083569;28;20221;-80
2022/07/16 03:57:22;;;;;;;0.40;0.40;;;16.30;99.90;;;;;;5077783;28;20203;-80
2022/07/16 03:59:47;;;;;;;2.20;0.47;;;16.70;99.90;;;;;;5078904;28;20715;-80
2022/07/16 04:02:13;;;;;;;0.30;0.30;;;17.00;99.90;;;;;;5076657;28;20770;-81
2022/07/16 04:04:38;;;;;;;0.10;0.10;;;17.40;99.90;;;;;;5069987;28;20180;-81
2022/07/16 04:07:04;;;;;;;0.27;0.27;;;18.00;99.90;;;;;;5084104;28;20177;-79
2022/07/16 04:09:29;;;;;;;0.20;0.20;;;18.60;99.90;;;;;;5084781;28;20204;-79
2022/07/16 04:11:55;;;;;;;0.20;0.20;;;19.10;99.90;;;;;;5085183;28;20239;-80
2022/07/16 04:14:21;;;;;;;0.30;0.30;;;19.50;99.90;;;;;;5074945;28;20173;-80
2022/07/16 04:16:47;;;;;;;0.30;0.30;;;20.00;99.90;;;;;;5083432;28;20187;-80
2022/07/16 04:19:12;;;;;;;0.20;0.20;;;20.40;99.90;;;;;;5083354;28;20251;-80
2022/07/16 04:21:38;;;;;;;0.37;0.37;;;20.70;99.90;;;;;;5073651;28;20548;-79
2022/07/16 04:24:04;;;;;;;0.30;0.30;;;20.70;99.90;;;;;;5079368;28;20176;-80
2022/07/16 04:26:29;;;;;;;0.77;0.27;;;20.30;99.90;;;;;;5080560;28;20169;-81
2022/07/16 04:28:56;;;;;;;0.20;0.20;;;19.80;99.90;;;;;;5081921;28;20232;-79
2022/07/16 04:31:22;;;;;;;0.20;0.20;;;19.40;99.90;;;;;;5077921;28;20196;-80
2022/07/16 04:33:48;;;;;;;0.67;0.30;;;19.00;99.90;;;;;;5079804;28;20192;-80
2022/07/16 04:36:13;;;;;;;0.30;0.30;;;18.60;99.90;;;;;;5062973;28;20185;-80
2022/07/16 04:38:39;;;;;;;0.27;0.27;;;18.20;99.90;;;;;;5076679;28;20187;-80
2022/07/16 04:41:04;;;;;;;0.20;0.20;;;17.80;99.90;;;;;;5087333;28;20607;-80
2022/07/16 04:43:30;;;;;;;0.30;0.27;;;17.40;99.90;;;;;;5086808;28;20596;-80
2022/07/16 04:45:56;;;;;;;0.20;0.20;;;17.10;99.90;;;;;;5081762;28;20259;-79
2022/07/16 04:48:21;;;;;;;0.30;0.30;;;17.00;99.90;;;;;;5073250;28;20387;-79
2022/07/16 04:50:47;;;;;;;3.23;0.67;;;16.90;99.90;;;;;;5080780;28;20235;-80
2022/07/16 04:53:13;;;;;;;0.20;0.20;;;16.90;99.90;;;;;;5086553;28;20182;-80
2022/07/16 04:55:38;;;;;;;0.20;0.20;;;16.70;99.90;;;;;;5081449;28;20646;-80
2022/07/16 04:58:04;;;;;;;0.20;0.20;;;16.60;99.90;;;;;;5078678;28;20264;-79
2022/07/16 05:00:30;;;;;;;0.30;0.30;;;16.50;99.90;;;;;;5090353;28;20181;-79
2022/07/16 05:02:58;;;;;;;0.40;0.40;;;16.40;99.90;;;;;;5076492;28;20244;-79
2022/07/16 05:05:36;;;;;;;0.33;0.33;;;16.30;99.90;;;;;;5081294;28;20247;-81
2022/07/16 05:08:04;;;;;;;0.20;0.20;;;16.30;99.90;;;;;;5077419;28;20199;-79
2022/07/16 05:10:30;;;;;;;0.30;0.30;;;16.30;99.90;;;;;;5065586;28;20275;-80
2022/07/16 05:12:56;;;;;;;0.20;0.20;;;16.40;99.90;;;;;;5089808;28;20614;-81
2022/07/16 05:15:22;;;;;;;0.23;0.23;;;16.50;99.90;;;;;;5076123;28;20649;-80
2022/07/16 05:17:48;;;;;;;0.27;0.27;;;16.50;99.90;;;;;;5084095;28;20283;-80
2022/07/16 05:20:13;;;;;;;0.70;0.70;;;16.60;99.90;;;;;;5084265;28;20179;-80
2022/07/16 05:22:39;;;;;;;0.20;0.20;;;16.70;99.90;;;;;;5089033;28;20683;-80
2022/07/16 05:25:06;;;;;;;0.20;0.20;;;16.80;99.90;;;;;;5074494;28;20676;-80
2022/07/16 05:27:33;;;;;;;0.20;0.20;;;16.90;99.90;;;;;;5087840;28;20196;-80
2022/07/16 05:29:58;;;;;;;0.20;0.20;;;17.00;99.90;;;;;;5084765;28;20210;-80
2022/07/16 05:32:24;;;;;;;0.47;0.20;;;17.20;99.90;;;;;;5083011;28;20263;-81
2022/07/16 05:34:49;;;;;;;0.40;0.40;;;17.20;99.90;;;;;;5082898;28;20177;-80
2022/07/16 05:37:15;;;;;;;0.30;0.30;;;17.30;99.90;;;;;;5075673;28;20260;-80
2022/07/16 05:39:40;;;;;;;0.10;0.10;;;17.40;99.90;;;;;;5091941;28;20186;-80
2022/07/16 05:42:06;;;;;;;0.10;0.10;;;17.50;99.90;;;;;;5076319;28;20178;-80
2022/07/16 05:44:32;;;;;;;0.10;0.10;;;17.60;99.90;;;;;;5088401;28;20183;-80
2022/07/16 05:46:57;;;;;;;1.93;1.80;;;17.70;99.90;;;;;;5084475;28;20192;-80
2022/07/16 05:49:23;;;;;;;0.90;0.33;;;17.70;99.90;;;;;;5082908;28;20185;-80
2022/07/16 05:51:49;;;;;;;0.30;0.30;;;17.70;99.90;;;;;;5072488;28;20182;-80
2022/07/16 05:54:14;;;;;;;0.40;0.40;;;17.70;99.90;;;;;;5082883;28;20185;-79
2022/07/16 05:56:40;;;;;;;0.63;0.40;;;17.80;99.90;;;;;;5081517;28;20256;-79
2022/07/16 05:59:05;;;;;;;0.10;0.10;;;17.90;99.90;;;;;;5080808;28;20657;-79
2022/07/16 06:01:31;;;;;;;0.30;0.30;;;17.90;99.90;;;;;;5082217;28;20260;-79
2022/07/16 06:03:57;;;;;;;0.53;0.40;;;18.00;99.90;;;;;;5079850;28;20650;-80
2022/07/16 06:06:23;;;;;;;0.60;0.60;;;18.00;99.90;;;;;;5083145;28;20209;-80
2022/07/16 06:08:48;;;;;;;0.23;0.23;;;18.00;99.90;;;;;;5086341;28;20208;-80
2022/07/16 06:11:14;;;;;;;0.30;0.30;;;18.20;99.90;;;;;;5088424;28;20695;-81
2022/07/16 06:13:39;;;;;;;0.20;0.20;;;18.30;99.90;;;;;;5082707;28;20169;-81
2022/07/16 06:16:07;;;;;;;0.30;0.30;;;18.50;99.90;;;;;;5089650;28;20263;-81
2022/07/16 06:18:36;;;;;;;0.57;0.37;;;18.60;99.90;;;;;;5082676;28;20990;-81
2022/07/16 06:21:02;;;;;;;0.40;0.40;;;18.70;99.90;;;;;;5056912;28;20186;-81
2022/07/16 06:23:28;;;;;;;1.93;0.40;;;18.70;99.90;;;;;;5080410;28;20204;-81
2022/07/16 06:25:53;;;;;;;0.40;0.40;;;18.80;99.90;;;;;;5076241;28;20637;-82
2022/07/16 06:28:19;;;;;;;0.20;0.20;;;18.90;99.90;;;;;;5078703;28;20206;-81
2022/07/16 06:30:44;;;;;;;0.47;0.40;;;19.10;99.90;;;;;;5084516;28;20207;-81
2022/07/16 06:33:10;;;;;;;0.30;0.30;;;19.10;99.90;;;;;;5090233;28;20177;-81
2022/07/16 06:35:36;;;;;;;0.40;0.40;;;19.30;99.90;;;;;;5076218;28;20185;-81
2022/07/16 06:38:04;;;;;;;0.53;0.53;;;19.40;99.90;;;;;;5077899;28;20235;-82
2022/07/16 06:40:30;;;;;;;0.40;0.40;;;19.50;99.90;;;;;;5080029;28;20182;-80
2022/07/16 06:42:56;;;;;;;0.43;0.43;;;19.60;99.90;;;;;;5087594;28;20233;-81
2022/07/16 06:45:22;;;;;;;0.43;0.43;;;19.80;99.90;;;;;;5087030;28;20189;-80
2022/07/16 06:47:47;;;;;;;0.40;0.30;;;19.70;99.90;;;;;;5085229;28;20224;-81
2022/07/16 06:50:13;;;;;;;0.30;0.30;;;19.70;99.90;;;;;;5089445;28;20202;-80
2022/07/16 06:52:39;;;;;;;3.13;0.40;;;19.70;99.90;;;;;;5082816;28;20175;-79
2022/07/16 06:55:06;;;;;;;0.57;0.40;;;19.90;99.90;;;;;;5084048;28;20306;-80
2022/07/16 06:57:31;;;;;;;0.20;0.20;;;20.00;99.90;;;;;;5086881;28;20199;-80
2022/07/16 06:59:57;;;;;;;0.40;0.40;;;20.10;99.90;;;;;;5088139;28;20176;-83
2022/07/16 07:02:23;;;;;;;0.27;0.27;;;20.10;99.90;;;;;;5088617;28;20216;-79
2022/07/16 07:04:48;;;;;;;0.50;0.50;;;20.30;99.90;;;;;;5084613;28;20190;-79
2022/07/16 07:07:14;;;;;;;0.87;0.63;;;20.40;99.90;;;;;;5088690;28;20569;-80
2022/07/16 07:09:40;;;;;;;0.30;0.30;;;20.60;99.90;;;;;;5078836;28;20208;-80
2022/07/16 07:12:06;;;;;;;0.30;0.30;;;20.40;99.90;;;;;;5085338;28;20234;-80
2022/07/16 07:14:31;;;;;;;0.70;0.70;;;20.70;99.90;;;;;;5088198;28;20175;-79
2022/07/16 07:16:57;;;;;;;0.37;0.37;;;20.80;99.90;;;;;;5084503;28;20217;-79
2022/07/16 07:19:22;;;;;;;0.70;0.70;;;21.10;99.90;;;;;;5086775;28;20184;-81
2022/07/16 07:21:47;;;;;;;0.27;0.27;;;21.20;99.90;;;;;;5076958;28;20599;-79
2022/07/16 07:24:13;;;;;;;0.30;0.27;;;21.50;99.90;;;;;;5084867;28;20249;-81
2022/07/16 07:26:39;;;;;;;0.40;0.40;;;21.80;99.90;;;;;;5084077;28;20169;-80
2022/07/16 07:29:05;;;;;;;0.20;0.20;;;22.30;99.90;;;;;;5087548;28;20274;-79
2022/07/16 07:31:31;;;;;;;0.90;0.90;;;22.70;99.90;;;;;;5079017;28;20200;-80
2022/07/16 07:33:56;;;;;;;0.40;0.40;;;23.10;99.90;;;;;;5087135;28;20702;-80
2022/07/16 07:36:22;;;;;;;0.40;0.40;;;23.30;99.90;;;;;;5079796;28;20707;-80
2022/07/16 07:38:48;;;;;;;0.20;0.20;;;23.40;99.90;;;;;;5077640;28;20454;-80
2022/07/16 07:41:14;;;;;;;1.03;0.60;;;23.50;99.90;;;;;;5090853;28;20177;-82
2022/07/16 07:43:39;;;;;;;0.43;0.43;;;23.50;99.90;;;;;;5085125;28;20248;-80
2022/07/16 07:46:06;;;;;;;0.50;0.50;;;23.70;99.90;;;;;;5080605;28;20188;-80
2022/07/16 07:48:32;;;;;;;0.40;0.40;;;23.50;99.90;;;;;;5075778;28;20746;-79
2022/07/16 07:50:58;;;;;;;0.30;0.30;;;23.40;99.90;;;;;;5078873;28;20231;-80
2022/07/16 07:53:24;;;;;;;0.37;0.37;;;23.40;99.90;;;;;;5083069;28;20605;-80
2022/07/16 07:55:50;;;;;;;0.30;0.30;;;23.50;99.90;;;;;;5089037;28;20206;-80
2022/07/16 07:58:16;;;;;;;2.53;0.50;;;23.60;99.90;;;;;;5087639;28;20201;-82
2022/07/16 08:00:42;;;;;;;0.20;0.20;;;23.50;99.90;;;;;;5086573;28;20204;-80
2022/07/16 08:03:09;;;;;;;0.30;0.30;;;23.30;99.90;;;;;;5086100;28;20612;-80
2022/07/16 08:05:34;;;;;;;1.03;1.03;;;23.50;99.90;;;;;;5090339;28;20267;-80
2022/07/16 08:08:00;;;;;;;0.30;0.30;;;23.60;99.90;;;;;;5088984;28;20233;-79
2022/07/16 08:10:25;;;;;;;0.30;0.30;;;23.60;99.90;;;;;;5090587;28;20207;-80
2022/07/16 08:12:51;;;;;;;0.13;0.13;;;23.50;99.90;;;;;;5086665;28;20206;-80
2022/07/16 08:15:16;;;;;;;0.40;0.40;;;23.80;99.90;;;;;;5060239;28;20256;-80
2022/07/16 08:17:42;;;;;;;0.30;0.30;;;23.80;99.90;;;;;;5086553;28;20677;-80
2022/07/16 08:20:09;;;;;;;0.23;0.23;;;24.00;99.90;;;;;;5074727;28;20186;-82
2022/07/16 08:22:35;;;;;;;0.20;0.20;;;23.40;99.90;;;;;;5082155;28;20180;-81
2022/07/16 08:27:45;;;;;;;0.50;0.43;;;23.50;99.90;;;;;;5087886;28;20215;-81
2022/07/16 08:30:10;;;;;;;0.27;0.27;;;23.50;99.90;;;;;;5081029;28;20216;-81
2022/07/16 08:32:36;;;;;;;0.30;0.30;;;23.70;99.90;;;;;;5089040;28;20179;-81
2022/07/16 08:35:03;;;;;;;0.30;0.30;;;23.60;99.90;;;;;;5077305;28;20169;-82
2022/07/16 08:37:35;;;;;;;0.73;0.40;;;23.20;99.90;;;;;;5077517;28;20213;-81
2022/07/16 08:40:04;;;;;;;0.20;0.20;;;23.30;99.90;;;;;;5077770;28;20177;-81
2022/07/16 08:42:32;;;;;;;0.83;0.40;;;23.30;99.90;;;;;;5081967;28;20176;-79
2022/07/16 08:44:59;;;;;;;2.63;0.90;;;23.10;99.90;;;;;;5098004;28;20173;-81
2022/07/16 08:47:26;;;;;;;0.50;0.50;;;23.30;99.90;;;;;;5088529;28;20223;-80
2022/07/16 08:49:52;;;;;;;0.50;0.23;;;23.30;99.90;;;;;;5105372;28;20201;-81
2022/07/16 08:52:20;;;;;;;0.20;0.20;;;23.50;99.90;;;;;;5097191;28;20180;-81
2022/07/16 08:54:48;;;;;;;0.27;0.27;;;23.20;99.90;;;;;;5093571;28;20197;-81
2022/07/16 08:57:15;;;;;;;0.70;0.57;;;23.30;99.90;;;;;;5095685;28;20711;-81
2022/07/16 08:59:41;;;;;;;0.50;0.50;;;23.20;99.90;;;;;;5091752;28;20280;-80
2022/07/16 09:02:06;;;;;;;1.10;0.47;;;23.10;99.90;;;;;;5092998;28;20596;-82
2022/07/16 09:04:32;;;;;;;0.17;0.17;;;23.50;99.90;;;;;;5082599;28;20177;-81
2022/07/16 09:06:57;;;;;;;0.47;0.40;;;23.90;99.90;;;;;;5078373;28;20180;-81
2022/07/16 09:09:23;;;;;;;0.47;0.47;;;24.10;99.90;;;;;;5084338;28;20231;-80
2022/07/16 09:11:48;;;;;;;0.83;0.63;;;24.10;99.90;;;;;;5086554;28;20277;-82
2022/07/16 09:14:15;;;;;;;0.30;0.30;;;24.20;99.90;;;;;;5088246;28;20555;-82
2022/07/16 09:16:44;;;;;;;0.37;0.37;;;24.00;99.90;;;;;;5091877;28;20221;-82
2022/07/16 09:19:12;;;;;;;2.33;2.13;;;23.90;99.90;;;;;;5095002;28;20200;-82
2022/07/16 09:22:23;;;;;;;0.20;0.20;;;24.30;99.90;;;;;;5077536;28;20170;-81
2022/07/16 09:24:54;;;;;;;0.40;0.40;;;24.70;99.90;;;;;;5092458;28;20212;-81
2022/07/16 09:27:23;;;;;;;0.40;0.37;;;25.10;99.90;;;;;;5093772;28;20203;-82
2022/07/16 09:29:51;;;;;;;0.73;0.73;;;25.40;99.90;;;;;;5091520;28;20215;-80
2022/07/16 09:32:31;;;;;;;0.73;0.73;;;24.80;99.90;;;;;;5089945;28;20206;-81
2022/07/16 09:35:01;;;;;;;0.60;0.60;;;24.70;99.90;;;;;;5090780;28;20176;-81
2022/07/16 09:37:26;;;;;;;0.67;0.37;;;24.30;99.90;;;;;;5081419;28;20185;-82
2022/07/16 09:39:52;;;;;;;0.70;0.50;;;24.30;99.90;;;;;;5086605;28;20210;-80
2022/07/16 09:42:18;;;;;;;0.67;0.50;;;24.00;99.90;;;;;;5082183;28;20178;-81
2022/07/16 09:44:44;;;;;;;0.27;0.27;;;24.10;99.90;;;;;;5090723;28;20276;-80
2022/07/16 09:47:12;;;;;;;0.20;0.20;;;24.00;99.90;;;;;;5084846;28;20223;-80
2022/07/16 09:49:40;;;;;;;0.93;0.70;;;24.00;99.90;;;;;;5094668;28;20201;-80
2022/07/16 09:52:08;;;;;;;0.70;0.53;;;24.40;99.90;;;;;;5092627;28;20172;-81
2022/07/16 09:54:36;;;;;;;0.50;0.50;;;24.50;99.90;;;;;;5090733;28;20173;-80
2022/07/16 09:57:05;;;;;;;0.53;0.53;;;24.40;99.90;;;;;;5072242;28;20282;-80
2022/07/16 09:59:31;;;;;;;0.20;0.20;;;24.60;99.90;;;;;;5092260;28;20178;-81
2022/07/16 10:01:57;;;;;;;0.40;0.40;;;25.00;99.90;;;;;;5081995;28;20214;-81
2022/07/16 10:04:23;;;;;;;1.27;0.90;;;24.90;99.90;;;;;;5087652;28;20176;-82
2022/07/16 10:06:49;;;;;;;0.70;0.70;;;24.00;99.90;;;;;;5083381;28;20220;-79
2022/07/16 10:09:15;;;;;;;0.87;0.50;;;24.40;99.90;;;;;;5083077;28;20227;-82
2022/07/16 10:11:42;;;;;;;0.63;0.63;;;25.10;99.90;;;;;;5084518;28;20212;-82
2022/07/16 10:14:08;;;;;;;0.30;0.30;;;25.10;99.90;;;;;;5080444;28;20177;-82
2022/07/16 10:16:41;;;;;;;0.30;0.30;;;25.30;99.90;;;;;;5087068;28;20189;-80
2022/07/16 10:19:07;;;;;;;0.43;0.43;;;25.60;99.90;;;;;;5080607;28;20203;-83
2022/07/16 10:21:34;;;;;;;0.80;0.80;;;25.30;99.90;;;;;;5077194;28;20948;-82
2022/07/16 10:24:11;;;;;;;0.33;0.33;;;25.90;99.90;;;;;;5074220;28;20230;-81
2022/07/16 10:26:37;;;;;;;0.30;0.30;;;25.90;99.90;;;;;;5083201;28;20192;-80
2022/07/16 10:29:04;;;;;;;0.30;0.30;;;25.90;99.90;;;;;;5089432;28;20214;-81
2022/07/16 10:34:36;;;;;;;0.20;0.20;;;26.40;99.90;;;;;;5084686;28;20665;-80
2022/07/16 10:37:03;;;;;;;0.20;0.20;;;26.80;99.90;;;;;;5061414;28;20551;-81
2022/07/16 10:39:29;;;;;;;0.60;0.50;;;26.30;99.90;;;;;;5088565;28;20208;-80
2022/07/16 10:41:59;;;;;;;0.27;0.27;;;26.70;99.90;;;;;;5079734;28;20212;-79
2022/07/16 10:44:45;;;;;;;0.40;0.40;;;26.50;99.90;;;;;;5082557;28;20181;-79
2022/07/16 10:47:11;;;;;;;0.30;0.30;;;26.60;99.90;;;;;;5083794;28;20227;-81
2022/07/16 10:49:37;;;;;;;0.60;0.60;;;26.30;99.90;;;;;;5085724;28;20207;-81
2022/07/16 10:52:05;;;;;;;0.57;0.53;;;26.30;99.90;;;;;;5084034;28;20177;-82
2022/07/16 10:54:41;;;;;;;0.73;0.40;;;26.50;99.90;;;;;;5078117;28;20177;-82
2022/07/16 10:57:08;;;;;;;0.23;0.23;;;26.60;99.90;;;;;;5071840;28;20262;-82
2022/07/16 10:59:39;;;;;;;0.60;0.50;;;26.70;99.90;;;;;;5089635;28;20601;-82
2022/07/16 11:02:09;;;;;;;0.40;0.40;;;26.60;99.90;;;;;;5079339;28;20180;-82
2022/07/16 11:04:36;;;;;;;1.13;0.50;;;26.30;99.90;;;;;;5081142;28;20177;-82
2022/07/16 11:07:08;;;;;;;2.60;0.67;;;26.20;99.90;;;;;;5083226;28;20181;-80
2022/07/16 11:09:36;;;;;;;0.53;0.53;;;26.10;99.90;;;;;;5077546;28;20177;-81
2022/07/16 11:12:08;;;;;;;0.30;0.30;;;26.20;99.90;;;;;;5082144;28;20176;-81
2022/07/16 11:14:34;;;;;;;0.53;0.53;;;25.80;99.90;;;;;;5078363;28;20692;-80
2022/07/16 11:17:00;;;;;;;0.30;0.30;;;26.10;99.90;;;;;;5085242;28;20255;-80
2022/07/16 11:19:26;;;;;;;0.73;0.70;;;26.10;99.90;;;;;;5085347;28;20287;-80
2022/07/16 11:21:59;;;;;;;0.47;0.47;;;25.20;99.90;;;;;;5079836;28;20189;-80
2022/07/16 11:24:26;;;;;;;0.53;0.53;;;25.00;99.90;;;;;;5076326;28;20181;-80
2022/07/16 11:26:52;;;;;;;0.37;0.37;;;25.20;99.90;;;;;;5081789;28;20272;-79
2022/07/16 11:29:23;;;;;;;0.40;0.40;;;25.20;99.90;;;;;;5078231;28;20209;-79
2022/07/16 11:31:49;;;;;;;0.47;0.47;;;25.70;99.90;;;;;;5081478;28;20200;-79
2022/07/16 11:34:18;;;;;;;0.47;0.47;;;26.20;99.90;;;;;;5080632;28;20176;-79
2022/07/16 11:36:48;;;;;;;0.27;0.27;;;25.60;99.90;;;;;;5075894;28;20177;-79
2022/07/16 11:39:20;;;;;;;0.63;0.63;;;26.00;99.90;;;;;;5076658;28;20202;-79
2022/07/16 11:41:49;;;;;;;0.50;0.50;;;26.00;99.90;;;;;;5077985;28;20629;-81
2022/07/16 11:44:18;;;;;;;0.63;0.57;;;26.00;99.90;;;;;;5077545;28;20183;-79
2022/07/16 11:46:46;;;;;;;0.30;0.30;;;25.70;99.90;;;;;;5080434;28;20191;-79
2022/07/16 11:49:40;;;;;;;0.83;0.50;;;25.90;99.90;;;;;;5077853;28;20196;-79
2022/07/16 11:52:27;;;;;;;0.63;0.57;;;25.50;99.90;;;;;;5068184;28;20216;-80
2022/07/16 11:54:57;;;;;;;0.67;0.67;;;25.90;99.90;;;;;;5079686;28;20189;-79
2022/07/16 11:57:23;;;;;;;0.57;0.57;;;26.40;99.90;;;;;;5081880;28;20193;-79
2022/07/16 11:59:53;;;;;;;0.50;0.40;;;26.50;99.90;;;;;;5082910;28;20181;-79
2022/07/16 12:02:27;;;;;;;0.50;0.43;;;26.70;99.90;;;;;;5083762;28;20695;-78
2022/07/16 12:04:59;;;;;;;0.40;0.40;;;26.60;99.90;;;;;;5080810;28;20181;-79
2022/07/16 12:07:28;;;;;;;1.80;0.40;;;26.30;99.90;;;;;;5081985;28;20200;-79
2022/07/16 12:09:56;;;;;;;0.50;0.50;;;26.10;99.90;;;;;;5080852;28;20207;-79
2022/07/16 12:12:27;;;;;;;0.60;0.40;;;26.20;99.90;;;;;;5083313;28;20263;-79
2022/07/16 12:14:55;;;;;;;0.67;0.63;;;25.90;99.90;;;;;;5082455;28;20181;-79
2022/07/16 12:17:26;;;;;;;0.57;0.57;;;25.90;99.90;;;;;;5081607;28;20203;-80
2022/07/16 12:20:28;;;;;;;0.37;0.30;;;25.90;99.90;;;;;;5079491;28;20176;-79
2022/07/16 12:23:05;;;;;;;0.97;0.83;;;26.70;99.90;;;;;;5072408;28;20199;-79
2022/07/16 12:25:34;;;;;;;0.57;0.57;;;26.20;99.90;;;;;;5074008;28;20188;-80
2022/07/16 12:28:05;;;;;;;0.40;0.40;;;26.10;99.90;;;;;;5071040;28;20242;-79
2022/07/16 12:30:40;;;;;;;0.57;0.57;;;25.80;99.90;;;;;;5079236;28;20643;-79
2022/07/16 12:33:24;;;;;;;0.40;0.40;;;26.30;99.90;;;;;;5073353;28;20652;-79
2022/07/16 12:36:03;;;;;;;2.23;0.40;;;26.90;99.90;;;;;;5072897;28;20239;-78
2022/07/16 12:39:00;;;;;;;0.50;0.50;;;27.20;99.90;;;;;;5072773;28;20191;-78
2022/07/16 12:41:43;;;;;;;0.43;0.40;;;26.60;99.90;;;;;;5078004;28;20540;-79
2022/07/16 12:44:17;;;;;;;0.50;0.50;;;26.30;99.90;;;;;;5080708;28;20180;-79
2022/07/16 12:46:46;;;;;;;1.63;0.83;;;26.00;99.90;;;;;;5082176;28;20206;-79
2022/07/16 12:49:14;;;;;;;0.50;0.50;;;25.30;99.90;;;;;;5081463;28;20204;-79
2022/07/16 12:51:45;;;;;;;0.30;0.30;;;25.00;99.90;;;;;;5077683;28;20293;-80
2022/07/16 12:54:13;;;;;;;0.50;0.50;;;25.10;99.90;;;;;;5080635;28;20173;-81
2022/07/16 12:59:25;;;;;;;0.60;0.60;;;25.90;99.90;;;;;;5060508;28;20223;-78